Time,TemperatureF,DewpointF,PressureIn,WindDirection,WindDirectionDegrees,WindSpeedMPH,WindSpeedGustMPH,Humidity,HourlyPrecipIn,Conditions,Clouds,dailyrainin,SoftwareType,DateUTC
2013-05-26 00:02:00,47.0,47.0,29.55,South,189,6.0,12.0,100,0.02,,,0.41,,2013-05-26 04:02:00,
2013-05-26 00:12:00,47.0,47.0,29.55,South,189,6.0,12.0,100,0.02,,,0.41,,2013-05-26 04:12:00,
2013-05-26 00:23:00,47.0,47.0,29.54,South,186,7.0,16.0,100,0.03,,,0.42,,2013-05-26 04:23:00,
2013-05-26 00:33:00,47.0,47.0,29.54,SSW,193,5.0,15.0,100,0.02,,,0.42,,2013-05-26 04:33:00,
2013-05-26 00:42:00,47.0,47.0,29.54,SSW,193,5.0,15.0,100,0.02,,,0.42,,2013-05-26 04:42:00,
2013-05-26 00:52:00,47.0,47.0,29.54,South,184,6.0,16.0,100,0.02,,,0.42,,2013-05-26 04:52:00,
2013-05-26 01:02:00,47.0,47.0,29.53,SSW,192,4.0,12.0,100,0.01,,,0.42,,2013-05-26 05:02:00,
2013-05-26 01:12:00,47.0,47.0,29.53,SSW,192,4.0,12.0,100,0.01,,,0.42,,2013-05-26 05:12:00,
2013-05-26 01:22:00,47.0,47.0,29.52,SSW,193,4.0,11.0,100,0.00,,,0.42,,2013-05-26 05:22:00,
2013-05-26 01:32:00,47.0,47.0,29.51,SSE,161,6.0,11.0,100,0.01,,,0.43,,2013-05-26 05:32:00,
2013-05-26 01:42:00,47.0,47.0,29.51,SSE,161,6.0,11.0,100,0.01,,,0.43,,2013-05-26 05:42:00,
2013-05-26 01:52:00,47.0,47.0,29.51,South,169,6.0,13.0,100,0.01,,,0.43,,2013-05-26 05:52:00,
2013-05-26 02:01:00,47.0,47.0,29.50,SSW,193,5.0,11.0,100,0.02,,,0.44,,2013-05-26 06:01:00,
2013-05-26 02:12:00,47.0,47.0,29.50,SSW,193,5.0,11.0,100,0.02,,,0.44,,2013-05-26 06:12:00,
2013-05-26 02:22:00,47.0,47.0,29.49,South,179,4.0,9.0,100,0.03,,,0.45,,2013-05-26 06:22:00,
2013-05-26 02:32:00,47.0,47.0,29.49,South,184,4.0,10.0,100,0.02,,,0.45,,2013-05-26 06:32:00,
2013-05-26 02:42:00,47.0,47.0,29.49,South,184,4.0,10.0,100,0.02,,,0.45,,2013-05-26 06:42:00,
2013-05-26 02:52:00,47.0,47.0,29.49,SSE,153,4.0,10.0,100,0.02,,,0.45,,2013-05-26 06:52:00,
2013-05-26 03:01:00,47.0,47.0,29.48,SSE,165,4.0,11.0,100,0.01,,,0.45,,2013-05-26 07:01:00,
2013-05-26 03:11:00,47.0,47.0,29.48,SSE,165,4.0,11.0,100,0.01,,,0.45,,2013-05-26 07:11:00,
2013-05-26 03:22:00,47.0,47.0,29.47,SSE,154,2.0,7.0,100,0.01,,,0.46,,2013-05-26 07:22:00,
2013-05-26 03:32:00,47.0,47.0,29.47,South,173,4.0,11.0,100,0.03,,,0.48,,2013-05-26 07:32:00,
2013-05-26 03:42:00,47.0,47.0,29.47,South,173,4.0,11.0,100,0.03,,,0.48,,2013-05-26 07:42:00,
2013-05-26 03:52:00,47.0,47.0,29.47,South,176,4.0,11.0,100,0.04,,,0.49,,2013-05-26 07:52:00,
2013-05-26 04:01:00,47.0,47.0,29.46,SSE,154,7.0,14.0,100,0.06,,,0.51,,2013-05-26 08:01:00,
2013-05-26 04:12:00,47.0,47.0,29.46,SSE,154,7.0,14.0,100,0.06,,,0.51,,2013-05-26 08:12:00,
2013-05-26 04:21:00,47.0,47.0,29.46,South,169,4.0,9.0,100,0.08,,,0.54,,2013-05-26 08:21:00,
2013-05-26 04:32:00,47.0,47.0,29.46,SSE,162,5.0,12.0,100,0.08,,,0.56,,2013-05-26 08:32:00,
2013-05-26 04:42:00,47.0,47.0,29.46,SSE,162,5.0,12.0,100,0.08,,,0.56,,2013-05-26 08:42:00,
2013-05-26 04:53:00,47.0,47.0,29.46,SSE,148,3.0,9.0,100,0.08,,,0.57,,2013-05-26 08:53:00,
2013-05-26 05:01:00,47.0,47.0,29.45,South,175,4.0,10.0,100,0.09,,,0.60,,2013-05-26 09:01:00,
2013-05-26 05:11:00,47.0,47.0,29.46,SSE,162,3.0,7.0,100,0.06,,,0.60,,2013-05-26 09:11:00,
2013-05-26 05:21:00,47.0,47.0,29.46,SSE,162,3.0,7.0,100,0.06,,,0.60,,2013-05-26 09:21:00,
2013-05-26 05:33:00,47.0,47.0,29.46,SSE,161,3.0,9.0,100,0.05,,,0.55,,2013-05-26 09:33:00,
2013-05-26 05:42:00,47.0,47.0,29.46,SSE,161,3.0,9.0,100,0.05,,,0.55,,2013-05-26 09:42:00,
2013-05-26 05:53:00,47.0,47.0,29.46,SSE,159,4.0,8.0,100,0.04,,,0.56,,2013-05-26 09:53:00,
2013-05-26 06:02:00,46.0,46.0,29.46,SSW,207,5.0,8.0,100,0.03,,,0.56,,2013-05-26 10:02:00,
2013-05-26 06:12:00,46.0,46.0,29.46,SSW,207,5.0,8.0,100,0.03,,,0.56,,2013-05-26 10:12:00,
2013-05-26 06:23:00,45.0,45.0,29.47,WNW,287,4.0,10.0,100,0.04,,,0.57,,2013-05-26 10:23:00,
2013-05-26 06:33:00,46.0,46.0,29.47,WNW,294,5.0,10.0,100,0.03,,,0.56,,2013-05-26 10:33:00,
2013-05-26 06:42:00,45.0,45.0,29.47,WNW,285,3.0,8.0,100,0.02,,,0.56,,2013-05-26 10:42:00,
2013-05-26 06:52:00,45.0,45.0,29.47,WNW,285,3.0,8.0,100,0.02,,,0.56,,2013-05-26 10:52:00,
2013-05-26 07:03:00,45.0,45.0,29.47,West,278,3.0,9.0,100,0.01,,,0.56,,2013-05-26 11:03:00,
2013-05-26 07:11:00,45.0,45.0,29.47,West,278,3.0,9.0,100,0.01,,,0.56,,2013-05-26 11:11:00,
2013-05-26 07:22:00,45.0,45.0,29.48,West,280,3.0,8.0,100,0.00,,,0.56,,2013-05-26 11:22:00,
2013-05-26 07:32:00,45.0,45.0,29.48,West,278,6.0,11.0,100,0.00,,,0.52,,2013-05-26 11:32:00,
2013-05-26 07:42:00,45.0,45.0,29.48,West,278,6.0,11.0,100,0.00,,,0.52,,2013-05-26 11:42:00,
2013-05-26 07:52:00,45.0,45.0,29.48,WNW,282,5.0,8.0,100,0.00,,,0.52,,2013-05-26 11:52:00,
2013-05-26 08:02:00,45.0,45.0,29.49,WNW,284,6.0,9.0,100,0.00,,,0.52,,2013-05-26 12:02:00,
2013-05-26 08:12:00,45.0,45.0,29.49,WNW,284,6.0,9.0,100,0.00,,,0.52,,2013-05-26 12:12:00,
2013-05-26 08:22:00,45.0,45.0,29.49,WNW,284,4.0,7.0,100,0.00,,,0.52,,2013-05-26 12:22:00,
2013-05-26 08:32:00,45.0,45.0,29.50,WNW,284,4.0,7.0,100,0.00,,,0.51,,2013-05-26 12:32:00,
2013-05-26 08:42:00,45.0,45.0,29.50,WNW,284,4.0,7.0,100,0.00,,,0.51,,2013-05-26 12:42:00,
2013-05-26 08:52:00,45.0,45.0,29.50,WNW,284,2.0,8.0,100,0.00,,,0.51,,2013-05-26 12:52:00,
2013-05-26 09:02:00,45.0,45.0,29.51,West,280,1.0,6.0,100,0.00,,,0.51,,2013-05-26 13:02:00,
2013-05-26 09:11:00,45.0,45.0,29.51,West,280,1.0,6.0,100,0.00,,,0.51,,2013-05-26 13:11:00,
2013-05-26 09:21:00,45.0,45.0,29.51,West,280,4.0,7.0,100,0.00,,,0.51,,2013-05-26 13:21:00,
2013-05-26 09:32:00,45.0,45.0,29.51,West,280,3.0,6.0,100,0.00,,,0.49,,2013-05-26 13:32:00,
2013-05-26 09:42:00,45.0,45.0,29.51,West,280,3.0,7.0,100,0.00,,,0.49,,2013-05-26 13:42:00,
2013-05-26 09:52:00,45.0,45.0,29.51,West,280,3.0,7.0,100,0.00,,,0.49,,2013-05-26 13:52:00,
2013-05-26 10:02:00,45.0,45.0,29.51,West,280,4.0,6.0,100,0.01,,,0.50,,2013-05-26 14:02:00,
2013-05-26 10:11:00,45.0,45.0,29.51,West,280,4.0,6.0,100,0.01,,,0.50,,2013-05-26 14:11:00,
2013-05-26 10:21:00,46.0,46.0,29.51,West,280,2.0,5.0,100,0.01,,,0.50,,2013-05-26 14:21:00,
2013-05-26 10:32:00,45.0,45.0,29.52,West,280,3.0,6.0,100,0.02,,,0.48,,2013-05-26 14:32:00,
2013-05-26 10:42:00,45.0,45.0,29.52,West,280,3.0,5.0,100,0.03,,,0.49,,2013-05-26 14:42:00,
2013-05-26 10:52:00,45.0,45.0,29.52,West,280,3.0,5.0,100,0.03,,,0.49,,2013-05-26 14:52:00,
2013-05-26 11:01:00,45.0,45.0,29.52,West,280,3.0,5.0,100,0.03,,,0.50,,2013-05-26 15:01:00,
2013-05-26 11:12:00,45.0,45.0,29.52,West,280,3.0,5.0,100,0.03,,,0.50,,2013-05-26 15:12:00,
2013-05-26 11:22:00,46.0,46.0,29.52,West,280,2.0,5.0,100,0.03,,,0.50,,2013-05-26 15:22:00,
2013-05-26 11:33:00,46.0,46.0,29.52,West,280,3.0,6.0,100,0.02,,,0.45,,2013-05-26 15:33:00,
2013-05-26 11:43:00,46.0,46.0,29.52,West,280,2.0,5.0,100,0.02,,,0.46,,2013-05-26 15:43:00,
2013-05-26 11:53:00,46.0,46.0,29.52,West,280,2.0,5.0,100,0.02,,,0.46,,2013-05-26 15:53:00,
2013-05-26 12:03:00,46.0,46.0,29.52,West,280,2.0,4.0,100,0.01,,,0.46,,2013-05-26 16:03:00,
2013-05-26 12:12:00,46.0,46.0,29.53,West,280,3.0,5.0,100,0.01,,,0.46,,2013-05-26 16:12:00,
2013-05-26 12:23:00,46.0,46.0,29.53,West,280,3.0,5.0,100,0.01,,,0.46,,2013-05-26 16:23:00,
2013-05-26 12:33:00,46.0,46.0,29.53,West,280,2.0,4.0,100,0.01,,,0.46,,2013-05-26 16:33:00,
2013-05-26 12:42:00,46.0,46.0,29.53,West,280,0.0,3.0,100,0.00,,,0.46,,2013-05-26 16:42:00,
2013-05-26 12:53:00,46.0,46.0,29.53,West,280,0.0,3.0,100,0.00,,,0.46,,2013-05-26 16:53:00,
2013-05-26 13:02:00,46.0,46.0,29.53,West,280,2.0,4.0,100,0.00,,,0.46,,2013-05-26 17:02:00,
2013-05-26 13:11:00,46.0,46.0,29.53,West,280,2.0,4.0,100,0.00,,,0.46,,2013-05-26 17:11:00,
2013-05-26 13:22:00,47.0,47.0,29.53,West,280,1.0,4.0,100,0.00,,,0.46,,2013-05-26 17:22:00,
2013-05-26 13:32:00,47.0,47.0,29.54,West,280,0.0,2.0,100,0.00,,,0.45,,2013-05-26 17:32:00,
2013-05-26 13:42:00,48.0,48.0,29.54,West,280,1.0,4.0,100,0.00,,,0.45,,2013-05-26 17:42:00,
2013-05-26 13:52:00,48.0,48.0,29.54,West,280,1.0,4.0,100,0.00,,,0.45,,2013-05-26 17:52:00,
2013-05-26 14:01:00,48.0,48.0,29.54,West,280,0.0,3.0,99,0.00,,,0.45,,2013-05-26 18:01:00,
2013-05-26 14:12:00,48.0,48.0,29.54,West,280,0.0,3.0,99,0.00,,,0.45,,2013-05-26 18:12:00,
2013-05-26 14:21:00,47.0,47.0,29.55,West,280,1.0,3.0,99,0.00,,,0.45,,2013-05-26 18:21:00,
2013-05-26 14:32:00,47.0,47.0,29.55,West,280,1.0,3.0,99,0.01,,,0.43,,2013-05-26 18:32:00,
2013-05-26 14:42:00,47.0,46.0,29.55,West,280,2.0,5.0,98,0.01,,,0.43,,2013-05-26 18:42:00,
2013-05-26 14:52:00,47.0,46.0,29.55,West,280,2.0,5.0,98,0.01,,,0.43,,2013-05-26 18:52:00,
2013-05-26 15:01:00,48.0,48.0,29.56,West,280,2.0,4.0,99,0.01,,,0.43,,2013-05-26 19:01:00,
2013-05-26 15:11:00,48.0,48.0,29.56,West,280,2.0,4.0,99,0.01,,,0.43,,2013-05-26 19:11:00,
2013-05-26 15:22:00,47.0,46.0,29.56,West,280,4.0,7.0,98,0.01,,,0.43,,2013-05-26 19:22:00,
2013-05-26 15:32:00,47.0,46.0,29.57,NNW,328,4.0,7.0,98,0.00,,,0.42,,2013-05-26 19:32:00,
2013-05-26 15:42:00,47.0,46.0,29.57,NNW,328,4.0,7.0,98,0.00,,,0.42,,2013-05-26 19:42:00,
2013-05-26 15:52:00,47.0,47.0,29.57,NNW,341,2.0,6.0,99,0.01,,,0.43,,2013-05-26 19:52:00,
2013-05-26 16:02:00,47.0,47.0,29.57,NNW,340,4.0,7.0,99,0.02,,,0.44,,2013-05-26 20:02:00,
2013-05-26 16:11:00,47.0,47.0,29.57,NNW,340,4.0,7.0,99,0.02,,,0.44,,2013-05-26 20:11:00,
2013-05-26 16:22:00,48.0,48.0,29.58,NNW,348,1.0,6.0,100,0.04,,,0.46,,2013-05-26 20:22:00,
2013-05-26 16:32:00,48.0,48.0,29.58,NE,39,2.0,8.0,100,0.06,,,0.46,,2013-05-26 20:32:00,
2013-05-26 16:42:00,48.0,48.0,29.59,NNE,29,5.0,12.0,100,0.06,,,0.47,,2013-05-26 20:42:00,
2013-05-26 16:52:00,48.0,48.0,29.59,NNE,29,5.0,12.0,100,0.06,,,0.47,,2013-05-26 20:52:00,
2013-05-26 17:02:00,48.0,48.0,29.59,NE,54,4.0,13.0,100,0.05,,,0.47,,2013-05-26 21:02:00,
2013-05-26 17:11:00,48.0,48.0,29.59,NE,54,4.0,13.0,100,0.05,,,0.47,,2013-05-26 21:11:00,
2013-05-26 17:22:00,49.0,49.0,29.60,NNE,20,9.0,15.0,99,0.03,,,0.47,,2013-05-26 21:22:00,
2013-05-26 17:33:00,49.0,48.0,29.61,North,8,5.0,14.0,98,0.01,,,0.45,,2013-05-26 21:33:00,
2013-05-26 17:43:00,49.0,48.0,29.61,North,8,5.0,14.0,98,0.01,,,0.45,,2013-05-26 21:43:00,
2013-05-26 17:53:00,49.0,48.0,29.62,NNE,32,4.0,18.0,96,0.00,,,0.45,,2013-05-26 21:53:00,
2013-05-26 18:03:00,49.0,48.0,29.62,ENE,72,7.0,14.0,96,0.00,,,0.45,,2013-05-26 22:03:00,
2013-05-26 18:12:00,49.0,48.0,29.62,ENE,72,7.0,14.0,96,0.00,,,0.45,,2013-05-26 22:12:00,
2013-05-26 18:23:00,48.0,47.0,29.63,NE,48,5.0,16.0,95,0.00,,,0.45,,2013-05-26 22:23:00,
2013-05-26 18:33:00,48.0,46.0,29.64,NE,49,5.0,11.0,94,0.01,,,0.46,,2013-05-26 22:33:00,
2013-05-26 18:42:00,48.0,46.0,29.64,NE,50,3.0,11.0,94,0.01,,,0.46,,2013-05-26 22:42:00,
2013-05-26 18:53:00,48.0,46.0,29.64,NE,50,3.0,11.0,94,0.01,,,0.46,,2013-05-26 22:53:00,
2013-05-26 19:02:00,48.0,47.0,29.65,NE,34,1.0,10.0,95,0.01,,,0.46,,2013-05-26 23:02:00,
2013-05-26 19:12:00,48.0,47.0,29.65,NE,34,1.0,10.0,95,0.01,,,0.46,,2013-05-26 23:12:00,
2013-05-26 19:22:00,48.0,47.0,29.65,NE,39,1.0,6.0,96,0.01,,,0.46,,2013-05-26 23:22:00,
2013-05-26 19:32:00,49.0,48.0,29.66,NNE,32,4.0,8.0,95,0.00,,,0.45,,2013-05-26 23:32:00,
2013-05-26 19:43:00,49.0,47.0,29.66,ENE,57,5.0,14.0,93,0.00,,,0.45,,2013-05-26 23:43:00,
2013-05-26 19:52:00,49.0,47.0,29.66,ENE,57,5.0,14.0,93,0.00,,,0.45,,2013-05-26 23:52:00,
2013-05-26 20:02:00,49.0,47.0,29.67,NE,53,4.0,12.0,92,0.00,,,0.45,,2013-05-27 00:02:00,
2013-05-26 20:11:00,49.0,47.0,29.67,NE,53,4.0,12.0,92,0.00,,,0.45,,2013-05-27 00:11:00,
2013-05-26 20:22:00,49.0,46.0,29.67,ENE,64,8.0,17.0,89,0.00,,,0.45,,2013-05-27 00:22:00,
2013-05-26 20:32:00,48.0,45.0,29.68,NNE,18,9.0,21.0,88,0.00,,,0.44,,2013-05-27 00:32:00,
2013-05-26 20:42:00,48.0,46.0,29.69,NNE,32,6.0,12.0,92,0.00,,,0.44,,2013-05-27 00:42:00,
2013-05-26 20:52:00,48.0,46.0,29.69,NNE,32,6.0,12.0,92,0.00,,,0.44,,2013-05-27 00:52:00,
2013-05-26 21:01:00,47.0,44.0,29.70,ENE,69,6.0,14.0,88,0.00,,,0.44,,2013-05-27 01:01:00,
2013-05-26 21:11:00,47.0,44.0,29.70,ENE,69,6.0,14.0,88,0.00,,,0.44,,2013-05-27 01:11:00,
2013-05-26 21:22:00,47.0,44.0,29.71,NE,51,6.0,14.0,89,0.00,,,0.44,,2013-05-27 01:22:00,
2013-05-26 21:32:00,46.0,43.0,29.72,East,82,3.0,10.0,90,0.00,,,0.40,,2013-05-27 01:32:00,
2013-05-26 21:42:00,46.0,43.0,29.72,NNE,33,2.0,10.0,90,0.00,,,0.40,,2013-05-27 01:42:00,
2013-05-26 21:52:00,46.0,43.0,29.72,NNE,33,2.0,10.0,90,0.00,,,0.40,,2013-05-27 01:52:00,
2013-05-26 22:02:00,45.0,43.0,29.73,NNE,16,4.0,7.0,91,0.00,,,0.40,,2013-05-27 02:02:00,
2013-05-26 22:11:00,45.0,43.0,29.73,NNE,16,4.0,7.0,91,0.00,,,0.40,,2013-05-27 02:11:00,
2013-05-26 22:22:00,46.0,43.0,29.74,NNE,18,5.0,11.0,90,0.00,,,0.40,,2013-05-27 02:22:00,
2013-05-26 22:32:00,46.0,43.0,29.74,NNE,12,7.0,12.0,90,0.00,,,0.40,,2013-05-27 02:32:00,
2013-05-26 22:42:00,46.0,43.0,29.74,NNE,12,7.0,12.0,90,0.00,,,0.40,,2013-05-27 02:42:00,
2013-05-26 22:52:00,46.0,43.0,29.74,NNE,12,7.0,12.0,90,0.00,,,0.40,,2013-05-27 02:52:00,
2013-05-26 23:02:00,45.0,42.0,29.74,NNE,27,4.0,9.0,90,0.00,,,0.40,,2013-05-27 03:02:00,
2013-05-26 23:11:00,45.0,42.0,29.74,NNE,27,4.0,9.0,90,0.00,,,0.40,,2013-05-27 03:11:00,
2013-05-26 23:21:00,45.0,42.0,29.75,NNE,22,5.0,9.0,90,0.00,,,0.40,,2013-05-27 03:21:00,
2013-05-26 23:33:00,45.0,42.0,29.74,North,4,4.0,10.0,90,0.00,,,0.40,,2013-05-27 03:33:00,
2013-05-26 23:43:00,45.0,42.0,29.74,North,4,4.0,10.0,90,0.00,,,0.40,,2013-05-27 03:43:00,
2013-05-26 23:53:00,45.0,42.0,29.74,NNE,27,5.0,12.0,89,0.00,,,0.38,,2013-05-27 03:53:00,